Time,TemperatureF,DewpointF,PressureIn,WindDirection,WindDirectionDegrees,WindSpeedMPH,WindSpeedGustMPH,Humidity,HourlyPrecipIn,Conditions,Clouds,dailyrainin,SoftwareType,DateUTC
2013-03-04 00:28:00,26.1,21.0,29.72,NE,38,1.0,2.0,81,0.00,,,0.00,weatherlink.com 1.10,2013-03-04 05:28:00,
2013-03-04 00:35:00,26.0,21.0,29.72,East,79,0.0,3.0,81,0.00,,,0.00,weatherlink.com 1.10,2013-03-04 05:35:00,
2013-03-04 00:50:00,25.9,21.0,29.72,NE,50,1.0,3.0,82,0.00,,,0.00,weatherlink.com 1.10,2013-03-04 05:50:00,
2013-03-04 01:05:00,25.8,21.0,29.72,East,86,1.0,3.0,82,0.00,,,0.00,weatherlink.com 1.10,2013-03-04 06:05:00,
2013-03-04 01:20:00,25.8,22.0,29.72,NNE,28,1.0,3.0,84,0.00,,,0.00,weatherlink.com 1.10,2013-03-04 06:20:00,
2013-03-04 01:35:00,25.7,22.0,29.73,NNW,331,0.0,3.0,84,0.00,,,0.00,weatherlink.com 1.10,2013-03-04 06:35:00,
2013-03-04 01:50:00,25.7,22.0,29.72,North,5,1.0,3.0,85,0.00,,,0.00,weatherlink.com 1.10,2013-03-04 06:50:00,
2013-03-04 02:05:00,25.4,22.0,29.72,North,2,0.0,4.0,87,0.00,,,0.00,weatherlink.com 1.10,2013-03-04 07:05:00,
2013-03-04 02:20:00,25.4,22.0,29.72,East,83,1.0,2.0,87,0.00,,,0.00,weatherlink.com 1.10,2013-03-04 07:20:00,
2013-03-04 02:35:00,25.4,22.0,29.73,NNE,13,0.0,2.0,85,0.00,,,0.00,weatherlink.com 1.10,2013-03-04 07:35:00,
2013-03-04 02:50:00,25.4,22.0,29.72,ENE,75,2.0,2.0,85,0.00,,,0.00,weatherlink.com 1.10,2013-03-04 07:50:00,
2013-03-04 03:05:00,25.3,21.0,29.72,SE,136,0.0,2.0,85,0.00,,,0.00,weatherlink.com 1.10,2013-03-04 08:05:00,
2013-03-04 03:20:00,25.3,21.0,29.72,East,100,0.0,2.0,85,0.00,,,0.00,weatherlink.com 1.10,2013-03-04 08:20:00,
2013-03-04 03:35:00,25.3,21.0,29.72,NE,34,0.0,2.0,85,0.00,,,0.00,weatherlink.com 1.10,2013-03-04 08:35:00,
2013-03-04 03:50:00,25.3,21.0,29.73,NNE,32,1.0,2.0,85,0.00,,,0.00,weatherlink.com 1.10,2013-03-04 08:50:00,
2013-03-04 04:05:00,25.3,21.0,29.73,NNE,25,0.0,3.0,85,0.00,,,0.00,weatherlink.com 1.10,2013-03-04 09:05:00,
2013-03-04 04:20:00,25.2,21.0,29.73,NNE,25,0.0,3.0,85,0.00,,,0.00,weatherlink.com 1.10,2013-03-04 09:20:00,
2013-03-04 04:35:00,25.1,21.0,29.73,North,7,0.0,1.0,85,0.00,,,0.00,weatherlink.com 1.10,2013-03-04 09:35:00,
2013-03-04 04:50:00,25.1,21.0,29.73,ENE,71,0.0,1.0,85,0.00,,,0.00,weatherlink.com 1.10,2013-03-04 09:50:00,
2013-03-04 05:05:00,25.1,21.0,29.73,ESE,103,0.0,2.0,85,0.00,,,0.00,weatherlink.com 1.10,2013-03-04 10:05:00,
2013-03-04 05:20:00,25.1,21.0,29.74,NNE,17,0.0,2.0,85,0.00,,,0.00,weatherlink.com 1.10,2013-03-04 10:20:00,
2013-03-04 05:35:00,25.1,21.0,29.74,NE,38,0.0,2.0,85,0.00,,,0.00,weatherlink.com 1.10,2013-03-04 10:35:00,
2013-03-04 05:50:00,25.1,21.0,29.73,NE,38,0.0,2.0,85,0.00,,,0.00,weatherlink.com 1.10,2013-03-04 10:50:00,
2013-03-04 06:05:00,25.1,21.0,29.74,NE,38,0.0,1.0,84,0.00,,,0.00,weatherlink.com 1.10,2013-03-04 11:05:00,
2013-03-04 06:20:00,25.2,21.0,29.74,NE,38,0.0,0.0,84,0.00,,,0.00,weatherlink.com 1.10,2013-03-04 11:20:00,
2013-03-04 06:35:00,25.1,21.0,29.74,NE,38,0.0,0.0,84,0.00,,,0.00,weatherlink.com 1.10,2013-03-04 11:35:00,
2013-03-04 06:50:00,25.2,21.0,29.75,NE,38,0.0,1.0,84,0.00,,,0.00,weatherlink.com 1.10,2013-03-04 11:50:00,
2013-03-04 07:05:00,25.3,21.0,29.75,North,5,0.0,0.0,83,0.00,,,0.00,weatherlink.com 1.10,2013-03-04 12:05:00,
2013-03-04 07:20:00,25.6,21.0,29.75,North,5,0.0,1.0,83,0.00,,,0.00,weatherlink.com 1.10,2013-03-04 12:20:00,
2013-03-04 07:35:00,26.1,21.0,29.75,North,2,0.0,1.0,82,0.00,,,0.00,weatherlink.com 1.10,2013-03-04 12:35:00,
2013-03-04 07:50:00,26.3,21.0,29.75,North,2,0.0,1.0,80,0.00,,,0.00,weatherlink.com 1.10,2013-03-04 12:50:00,
2013-03-04 08:05:00,26.6,21.0,29.75,North,3,0.0,1.0,80,0.00,,,0.00,weatherlink.com 1.10,2013-03-04 13:05:00,
2013-03-04 08:20:00,26.7,21.0,29.74,NNE,29,0.0,2.0,79,0.00,,,0.00,weatherlink.com 1.10,2013-03-04 13:20:00,
2013-03-04 08:35:00,27.0,21.0,29.74,NNE,13,0.0,2.0,79,0.00,,,0.00,weatherlink.com 1.10,2013-03-04 13:35:00,
2013-03-04 08:51:00,27.0,21.0,29.74,NNE,22,1.0,3.0,79,0.00,,,0.00,weatherlink.com 1.10,2013-03-04 13:51:00,
2013-03-04 09:06:00,27.3,22.0,29.74,ESE,109,0.0,2.0,79,0.00,,,0.00,weatherlink.com 1.10,2013-03-04 14:06:00,
2013-03-04 09:21:00,27.7,22.0,29.74,NE,40,3.0,4.0,79,0.00,,,0.00,weatherlink.com 1.10,2013-03-04 14:21:00,
2013-03-04 09:36:00,27.4,21.0,29.74,East,87,3.0,4.0,77,0.00,,,0.00,weatherlink.com 1.10,2013-03-04 14:36:00,
2013-03-04 09:51:00,27.5,20.0,29.74,NNE,32,3.0,6.0,74,0.00,,,0.00,weatherlink.com 1.10,2013-03-04 14:51:00,
2013-03-04 10:06:00,27.7,20.0,29.74,NE,52,2.0,5.0,73,0.00,,,0.00,weatherlink.com 1.10,2013-03-04 15:06:00,
2013-03-04 10:21:00,28.2,21.0,29.74,NNW,340,0.0,3.0,73,0.00,,,0.00,weatherlink.com 1.10,2013-03-04 15:21:00,
2013-03-04 10:36:00,28.9,21.0,29.74,NE,41,1.0,4.0,72,0.00,,,0.00,weatherlink.com 1.10,2013-03-04 15:36:00,
2013-03-04 10:51:00,29.2,20.0,29.74,NW,315,0.0,4.0,69,0.00,,,0.00,weatherlink.com 1.10,2013-03-04 15:51:00,
2013-03-04 11:06:00,30.1,21.0,29.74,NW,325,0.0,4.0,68,0.00,,,0.00,weatherlink.com 1.10,2013-03-04 16:06:00,
2013-03-04 11:21:00,30.7,20.0,29.74,NW,320,0.0,4.0,65,0.00,,,0.00,weatherlink.com 1.10,2013-03-04 16:21:00,
2013-03-04 11:36:00,30.6,20.0,29.73,NW,315,0.0,5.0,66,0.00,,,0.00,weatherlink.com 1.10,2013-03-04 16:36:00,
2013-03-04 11:51:00,31.2,21.0,29.73,North,5,2.0,4.0,65,0.00,,,0.00,weatherlink.com 1.10,2013-03-04 16:51:00,
2013-03-04 12:06:00,30.5,20.0,29.73,NE,48,1.0,5.0,66,0.00,,,0.00,weatherlink.com 1.10,2013-03-04 17:06:00,
2013-03-04 12:21:00,30.3,20.0,29.73,NNE,22,1.0,3.0,66,0.00,,,0.00,weatherlink.com 1.10,2013-03-04 17:21:00,
2013-03-04 12:36:00,30.4,21.0,29.73,NNW,330,0.0,7.0,68,0.00,,,0.00,weatherlink.com 1.10,2013-03-04 17:36:00,
2013-03-04 12:51:00,30.0,23.0,29.73,North,2,2.0,6.0,74,0.00,,,0.00,weatherlink.com 1.10,2013-03-04 17:51:00,
2013-03-04 13:06:00,29.9,23.0,29.72,NNE,13,3.0,7.0,75,0.00,,,0.00,weatherlink.com 1.10,2013-03-04 18:06:00,
2013-03-04 13:21:00,30.2,23.0,29.73,North,359,4.0,7.0,74,0.00,,,0.00,weatherlink.com 1.10,2013-03-04 18:21:00,
2013-03-04 13:36:00,30.3,22.0,29.73,NNE,29,1.0,5.0,70,0.00,,,0.00,weatherlink.com 1.10,2013-03-04 18:36:00,
2013-03-04 13:51:00,30.4,23.0,29.73,NE,48,0.0,5.0,73,0.00,,,0.00,weatherlink.com 1.10,2013-03-04 18:51:00,
2013-03-04 14:06:00,29.7,24.0,29.73,NNE,15,3.0,6.0,80,0.00,,,0.00,weatherlink.com 1.10,2013-03-04 19:06:00,
2013-03-04 14:21:00,29.0,25.0,29.74,North,355,2.0,8.0,83,0.00,,,0.00,weatherlink.com 1.10,2013-03-04 19:21:00,
2013-03-04 14:36:00,29.0,24.0,29.74,North,5,4.0,8.0,80,0.00,,,0.00,weatherlink.com 1.10,2013-03-04 19:36:00,
2013-03-04 14:51:00,29.0,23.0,29.75,NNW,332,4.0,7.0,77,0.00,,,0.00,weatherlink.com 1.10,2013-03-04 19:51:00,
2013-03-04 15:06:00,27.7,24.0,29.75,North,3,7.0,11.0,84,0.00,,,0.00,weatherlink.com 1.10,2013-03-04 20:06:00,
2013-03-04 15:21:00,27.3,24.0,29.76,NNE,15,7.0,7.0,87,0.00,,,0.00,weatherlink.com 1.10,2013-03-04 20:21:00,
2013-03-04 15:36:00,26.7,24.0,29.76,North,7,2.0,8.0,88,0.00,,,0.00,weatherlink.com 1.10,2013-03-04 20:36:00,
2013-03-04 15:51:00,26.0,24.0,29.77,NNW,343,3.0,10.0,90,0.00,,,0.00,weatherlink.com 1.10,2013-03-04 20:51:00,
2013-03-04 16:06:00,25.8,24.0,29.77,NNW,329,1.0,9.0,91,0.00,,,0.00,weatherlink.com 1.10,2013-03-04 21:06:00,
2013-03-04 16:21:00,26.0,24.0,29.78,NNW,348,2.0,8.0,90,0.00,,,0.00,weatherlink.com 1.10,2013-03-04 21:21:00,
2013-03-04 16:36:00,26.1,23.0,29.78,NNW,343,7.0,10.0,89,0.00,,,0.00,weatherlink.com 1.10,2013-03-04 21:36:00,
2013-03-04 16:51:00,26.3,23.0,29.79,North,358,4.0,7.0,87,0.00,,,0.00,weatherlink.com 1.10,2013-03-04 21:51:00,
2013-03-04 17:06:00,26.7,23.0,29.80,North,7,2.0,9.0,84,0.00,,,0.00,weatherlink.com 1.10,2013-03-04 22:06:00,
2013-03-04 17:21:00,26.7,22.0,29.81,NW,316,0.0,10.0,83,0.00,,,0.00,weatherlink.com 1.10,2013-03-04 22:21:00,
2013-03-04 17:36:00,26.8,22.0,29.82,NNE,32,5.0,10.0,82,0.00,,,0.00,weatherlink.com 1.10,2013-03-04 22:36:00,
2013-03-04 17:51:00,26.9,22.0,29.83,North,350,3.0,8.0,81,0.00,,,0.00,weatherlink.com 1.10,2013-03-04 22:51:00,
2013-03-04 18:06:00,26.6,22.0,29.84,North,350,2.0,8.0,83,0.00,,,0.00,weatherlink.com 1.10,2013-03-04 23:06:00,
2013-03-04 18:22:00,26.3,22.0,29.85,NNE,22,5.0,8.0,84,0.00,,,0.00,weatherlink.com 1.10,2013-03-04 23:22:00,
2013-03-04 18:37:00,26.3,22.0,29.85,NNE,12,4.0,5.0,84,0.00,,,0.00,weatherlink.com 1.10,2013-03-04 23:37:00,
2013-03-04 18:52:00,26.2,22.0,29.86,NE,55,2.0,6.0,84,0.00,,,0.00,weatherlink.com 1.10,2013-03-04 23:52:00,
2013-03-04 19:07:00,26.1,22.0,29.86,NNE,29,3.0,8.0,84,0.00,,,0.00,weatherlink.com 1.10,2013-03-05 00:07:00,
2013-03-04 19:22:00,25.9,22.0,29.86,NE,44,5.0,8.0,84,0.00,,,0.00,weatherlink.com 1.10,2013-03-05 00:22:00,
2013-03-04 19:37:00,25.9,22.0,29.86,NNE,29,4.0,6.0,84,0.00,,,0.00,weatherlink.com 1.10,2013-03-05 00:37:00,
2013-03-04 19:52:00,26.1,22.0,29.87,NE,42,2.0,6.0,83,0.00,,,0.00,weatherlink.com 1.10,2013-03-05 00:52:00,
2013-03-04 20:07:00,26.2,21.0,29.87,North,354,0.0,6.0,82,0.00,,,0.00,weatherlink.com 1.10,2013-03-05 01:07:00,
2013-03-04 20:22:00,26.2,21.0,29.88,NE,46,2.0,7.0,82,0.00,,,0.00,weatherlink.com 1.10,2013-03-05 01:22:00,
2013-03-04 20:37:00,26.2,21.0,29.88,NNE,17,2.0,6.0,82,0.00,,,0.00,weatherlink.com 1.10,2013-03-05 01:37:00,
2013-03-04 20:52:00,26.2,21.0,29.88,NNE,15,3.0,6.0,82,0.00,,,0.00,weatherlink.com 1.10,2013-03-05 01:52:00,
2013-03-04 21:07:00,26.2,21.0,29.89,NNW,338,2.0,4.0,82,0.00,,,0.00,weatherlink.com 1.10,2013-03-05 02:07:00,
2013-03-04 21:22:00,26.2,22.0,29.89,NE,40,1.0,3.0,83,0.00,,,0.00,weatherlink.com 1.10,2013-03-05 02:22:00,
2013-03-04 21:37:00,26.2,22.0,29.89,NNE,15,1.0,4.0,83,0.00,,,0.00,weatherlink.com 1.10,2013-03-05 02:37:00,
2013-03-04 21:52:00,26.1,22.0,29.89,NE,34,0.0,5.0,83,0.00,,,0.00,weatherlink.com 1.10,2013-03-05 02:52:00,
2013-03-04 22:07:00,26.1,22.0,29.89,NNE,23,0.0,5.0,83,0.00,,,0.00,weatherlink.com 1.10,2013-03-05 03:07:00,
2013-03-04 22:22:00,25.9,22.0,29.89,North,2,1.0,2.0,84,0.00,,,0.00,weatherlink.com 1.10,2013-03-05 03:22:00,
2013-03-04 22:37:00,26.0,22.0,29.89,NNE,29,0.0,2.0,84,0.00,,,0.00,weatherlink.com 1.10,2013-03-05 03:37:00,
2013-03-04 22:52:00,26.1,22.0,29.90,North,5,0.0,2.0,83,0.00,,,0.00,weatherlink.com 1.10,2013-03-05 03:52:00,
2013-03-04 23:07:00,26.2,22.0,29.90,NE,38,2.0,4.0,83,0.00,,,0.00,weatherlink.com 1.10,2013-03-05 04:07:00,
2013-03-04 23:22:00,26.3,22.0,29.90,NNE,32,3.0,5.0,83,0.00,,,0.00,weatherlink.com 1.10,2013-03-05 04:22:00,
2013-03-04 23:37:00,26.3,22.0,29.91,NNW,334,0.0,0.0,82,0.00,,,0.00,weatherlink.com 1.10,2013-03-05 04:37:00,
2013-03-04 23:52:00,26.3,22.0,29.91,NNW,334,0.0,2.0,82,0.00,,,0.00,weatherlink.com 1.10,2013-03-05 04:52:00,